createdAt,value
2019-01-29T00:00:40.160Z,6.30
2019-01-29T00:03:09.561Z,9.47
2019-01-29T00:05:38.932Z,5.00
2019-01-29T00:08:08.037Z,4.73
2019-01-29T00:10:37.412Z,6.00
2019-01-29T00:13:06.559Z,5.70
2019-01-29T00:15:35.614Z,7.10
2019-01-29T00:18:05.968Z,7.93
2019-01-29T00:20:35.344Z,6.23
2019-01-29T00:23:04.713Z,6.00
2019-01-29T00:25:34.069Z,8.03
2019-01-29T00:28:03.248Z,6.03
2019-01-29T00:30:32.600Z,6.60
2019-01-29T00:33:02.013Z,5.00
2019-01-29T00:35:31.097Z,6.20
2019-01-29T00:38:00.463Z,5.97
2019-01-29T00:40:29.816Z,5.17
2019-01-29T00:42:58.931Z,5.03
2019-01-29T00:45:28.279Z,5.40
2019-01-29T00:47:57.357Z,5.63
2019-01-29T00:50:26.441Z,6.15
2019-01-29T00:52:55.544Z,5.90
2019-01-29T00:55:24.923Z,6.60
2019-01-29T00:57:54.005Z,6.55
2019-01-29T01:00:24.732Z,6.30
2019-01-29T01:02:53.854Z,6.13
2019-01-29T01:05:23.326Z,7.22
2019-01-29T01:07:52.400Z,7.50
2019-01-29T01:10:22.486Z,5.60
2019-01-29T01:12:51.580Z,5.90
2019-01-29T01:15:21.051Z,8.40
2019-01-29T01:17:50.387Z,7.53
2019-01-29T01:20:20.337Z,9.77
2019-01-29T01:22:51.267Z,8.20
2019-01-29T01:25:20.903Z,7.37
2019-01-29T01:27:49.984Z,6.47
2019-01-29T01:30:20.281Z,7.85
2019-01-29T01:32:49.683Z,8.25
2019-01-29T01:35:19.021Z,6.87
2019-01-29T01:37:48.153Z,8.53
2019-01-29T01:40:22.848Z,8.30
2019-01-29T01:42:52.022Z,8.10
2019-01-29T01:45:21.366Z,6.00
2019-01-29T01:47:50.464Z,7.28
2019-01-29T01:50:19.548Z,8.93
2019-01-29T01:52:48.668Z,9.93
2019-01-29T01:58:07.990Z,8.48
2019-01-29T02:00:37.617Z,9.70
2019-01-29T02:03:06.745Z,9.15
2019-01-29T02:05:35.821Z,9.20
2019-01-29T02:08:05.246Z,10.20
2019-01-29T02:10:35.003Z,8.15
2019-01-29T02:13:04.527Z,8.50
2019-01-29T02:15:33.938Z,8.28
2019-01-29T02:18:03.312Z,11.18
2019-01-29T02:20:32.434Z,8.38
2019-01-29T02:23:07.729Z,11.45
2019-01-29T02:25:32.336Z,10.98
2019-01-29T02:28:01.485Z,11.48
2019-01-29T02:30:30.863Z,16.45
2019-01-29T02:33:00.246Z,10.48
2019-01-29T02:35:29.682Z,10.50
2019-01-29T02:37:59.061Z,12.35
2019-01-29T02:40:29.363Z,10.95
2019-01-29T02:42:58.489Z,8.50
2019-01-29T02:45:27.578Z,10.90
2019-01-29T02:47:56.924Z,11.43
2019-01-29T02:50:26.004Z,10.58
2019-01-29T02:52:55.130Z,10.28
2019-01-29T02:55:24.483Z,10.95
2019-01-29T02:57:53.820Z,12.60
2019-01-29T03:00:27.151Z,11.57
2019-01-29T03:02:56.642Z,9.73
2019-01-29T03:05:25.839Z,9.73
2019-01-29T03:07:55.335Z,7.25
2019-01-29T03:10:26.160Z,10.25
2019-01-29T03:12:55.282Z,8.78
2019-01-29T03:15:27.565Z,10.93
2019-01-29T03:17:56.685Z,11.48
2019-01-29T03:20:26.048Z,7.70
2019-01-29T03:22:55.241Z,11.15
2019-01-29T03:25:25.063Z,7.10
2019-01-29T03:27:54.399Z,7.47
2019-01-29T03:30:24.404Z,8.78
2019-01-29T03:32:53.775Z,8.55
2019-01-29T03:35:22.848Z,7.60
2019-01-29T03:37:52.188Z,7.20
2019-01-29T03:40:25.610Z,5.87
2019-01-29T03:42:55.170Z,8.15
2019-01-29T03:45:24.329Z,9.53
2019-01-29T03:47:53.416Z,11.22
2019-01-29T03:50:22.980Z,4.53
2019-01-29T03:52:52.230Z,7.97
2019-01-29T03:55:21.385Z,9.53
2019-01-29T03:57:51.030Z,6.75
2019-01-29T04:00:24.172Z,5.67
2019-01-29T04:02:53.274Z,9.25
2019-01-29T04:05:22.635Z,6.92
2019-01-29T04:07:51.746Z,5.58
2019-01-29T04:10:21.455Z,10.32
2019-01-29T04:12:50.883Z,11.00
2019-01-29T04:15:21.305Z,5.75
2019-01-29T04:17:54.795Z,3.90
2019-01-29T04:20:26.111Z,6.80
2019-01-29T04:22:55.856Z,7.08
2019-01-29T04:25:25.168Z,6.05
2019-01-29T04:27:54.317Z,5.55
2019-01-29T04:30:24.231Z,6.90
2019-01-29T04:32:53.567Z,4.22
2019-01-29T04:35:22.971Z,6.72
2019-01-29T04:37:52.077Z,4.97
2019-01-29T04:40:21.963Z,8.40
2019-01-29T04:42:51.384Z,4.67
2019-01-29T04:45:20.513Z,4.60
2019-01-29T04:47:49.951Z,6.22
2019-01-29T04:50:21.171Z,5.65
2019-01-29T04:52:50.344Z,7.17
2019-01-29T04:55:20.131Z,5.20
2019-01-29T04:57:49.462Z,5.60
2019-01-29T05:00:23.588Z,6.15
2019-01-29T05:02:52.683Z,4.35
2019-01-29T05:05:22.994Z,6.08
2019-01-29T05:07:52.418Z,6.28
2019-01-29T05:10:22.616Z,4.97
2019-01-29T05:12:51.688Z,6.80
2019-01-29T05:15:21.617Z,5.67
2019-01-29T05:17:50.692Z,8.05
2019-01-29T05:20:22.339Z,6.80
2019-01-29T05:22:51.533Z,10.93
2019-01-29T05:25:21.247Z,7.97
2019-01-29T05:27:50.598Z,8.07
2019-01-29T05:30:23.175Z,6.87
2019-01-29T05:32:52.582Z,5.90
2019-01-29T05:35:21.701Z,4.90
2019-01-29T05:37:51.124Z,6.90
2019-01-29T05:40:22.997Z,5.53
2019-01-29T05:42:52.420Z,6.15
2019-01-29T05:45:22.898Z,6.30
2019-01-29T05:47:51.992Z,6.35
2019-01-29T05:50:21.453Z,6.87
2019-01-29T05:52:52.524Z,10.43
2019-01-29T05:55:21.637Z,5.17
2019-01-29T05:57:51.076Z,6.83
2019-01-29T06:00:25.275Z,8.70
2019-01-29T06:02:54.617Z,7.50
2019-01-29T06:05:24.216Z,10.25
2019-01-29T06:07:53.619Z,12.67
2019-01-29T06:10:22.713Z,9.38
2019-01-29T06:12:52.621Z,8.58
2019-01-29T06:15:23.287Z,7.90
2019-01-29T06:17:52.659Z,8.57
2019-01-29T06:20:26.107Z,7.87
2019-01-29T06:22:55.579Z,6.08
2019-01-29T06:25:24.718Z,12.70
2019-01-29T06:27:54.381Z,7.40
2019-01-29T06:30:25.304Z,10.20
2019-01-29T06:32:54.399Z,11.63
2019-01-29T06:35:23.613Z,8.85
2019-01-29T06:37:52.798Z,8.80
2019-01-29T06:40:28.255Z,6.75
2019-01-29T06:42:57.374Z,12.15
2019-01-29T06:45:27.310Z,8.63
2019-01-29T06:47:56.422Z,14.13
2019-01-29T06:50:26.928Z,15.30
2019-01-29T06:52:56.458Z,11.07
2019-01-29T06:55:26.112Z,8.85
2019-01-29T06:57:56.117Z,12.07
2019-01-29T07:00:30.360Z,11.15
2019-01-29T07:03:00.013Z,12.93
2019-01-29T07:05:29.429Z,10.88
2019-01-29T07:07:58.759Z,11.87
2019-01-29T07:10:28.212Z,10.18
2019-01-29T07:12:57.699Z,10.10
2019-01-29T07:15:46.726Z,9.05
2019-01-29T07:18:17.928Z,9.60
2019-01-29T07:20:47.021Z,9.70
2019-01-29T07:23:16.145Z,12.50
2019-01-29T07:25:45.258Z,10.90
2019-01-29T07:28:14.605Z,9.17
2019-01-29T07:30:43.709Z,10.47
2019-01-29T07:33:12.821Z,10.77
2019-01-29T07:35:41.937Z,11.17
2019-01-29T07:38:11.261Z,12.30
2019-01-29T07:40:40.373Z,12.10
2019-01-29T07:43:09.501Z,10.63
2019-01-29T07:45:38.602Z,16.77
2019-01-29T07:48:07.940Z,8.37
2019-01-29T07:50:37.286Z,9.80
2019-01-29T07:53:06.465Z,9.43
2019-01-29T07:55:35.831Z,12.00
2019-01-29T07:58:05.216Z,10.53
2019-01-29T08:00:34.395Z,12.87
2019-01-29T08:03:03.548Z,11.80
2019-01-29T08:05:32.668Z,11.23
2019-01-29T08:08:02.031Z,15.03
2019-01-29T08:10:31.145Z,10.10
2019-01-29T08:13:00.495Z,14.60
2019-01-29T08:15:29.896Z,12.33
2019-01-29T08:17:59.401Z,10.93
2019-01-29T08:20:28.485Z,9.77
2019-01-29T08:22:57.604Z,10.53
2019-01-29T08:25:26.724Z,12.13
2019-01-29T08:27:55.908Z,9.43
2019-01-29T08:30:25.031Z,12.53
2019-01-29T08:32:54.399Z,8.97
2019-01-29T08:35:23.853Z,11.07
2019-01-29T08:37:53.208Z,8.57
2019-01-29T08:40:22.328Z,9.03
2019-01-29T08:42:51.460Z,11.67
2019-01-29T08:45:21.683Z,11.57
2019-01-29T08:47:51.148Z,11.23
2019-01-29T08:50:24.906Z,11.50
2019-01-29T08:52:54.003Z,11.67
2019-01-29T08:55:23.320Z,10.17
2019-01-29T08:57:52.660Z,9.70
2019-01-29T09:00:22.879Z,12.97
2019-01-29T09:02:52.079Z,13.23
2019-01-29T09:05:21.489Z,11.07
2019-01-29T09:07:50.824Z,14.63
2019-01-29T09:10:21.037Z,11.13
2019-01-29T09:12:50.145Z,9.80
2019-01-29T09:15:20.777Z,11.77
2019-01-29T09:17:50.034Z,11.10
2019-01-29T09:20:23.556Z,8.37
2019-01-29T09:22:52.628Z,9.63
2019-01-29T09:25:22.840Z,16.00
2019-01-29T09:27:52.257Z,9.50
2019-01-29T09:30:22.167Z,8.40
2019-01-29T09:32:51.324Z,10.07
2019-01-29T09:35:20.400Z,6.97
2019-01-29T09:37:49.764Z,6.83
2019-01-29T09:40:23.240Z,11.53
2019-01-29T09:42:52.975Z,6.73
2019-01-29T09:45:22.709Z,6.93
2019-01-29T09:47:51.788Z,6.87
2019-01-29T09:50:22.881Z,11.50
2019-01-29T09:52:52.724Z,7.90
2019-01-29T09:55:28.893Z,6.43
2019-01-29T09:57:53.772Z,5.93
2019-01-29T10:00:33.278Z,9.47
2019-01-29T10:03:02.688Z,9.40
2019-01-29T10:05:32.087Z,8.93
2019-01-29T10:08:01.191Z,6.27
2019-01-29T10:10:30.569Z,7.63
2019-01-29T10:12:59.638Z,5.93
2019-01-29T10:15:35.266Z,9.67
2019-01-29T10:18:05.031Z,6.97
2019-01-29T10:20:34.626Z,8.60
2019-01-29T10:23:03.742Z,6.93
2019-01-29T10:25:37.840Z,8.07
2019-01-29T10:28:03.922Z,10.17
2019-01-29T10:30:33.282Z,8.30
2019-01-29T10:33:02.610Z,6.30
2019-01-29T10:35:31.783Z,8.10
2019-01-29T10:38:01.142Z,7.03
2019-01-29T10:40:30.217Z,11.13
2019-01-29T10:42:59.833Z,11.13
2019-01-29T10:45:30.822Z,7.87
2019-01-29T10:47:59.988Z,8.23
2019-01-29T10:50:31.165Z,6.77
2019-01-29T10:53:00.241Z,8.93
2019-01-29T10:55:29.721Z,8.03
2019-01-29T10:57:58.912Z,11.10
2019-01-29T11:00:38.480Z,10.37
2019-01-29T11:03:09.017Z,10.63
2019-01-29T11:05:38.721Z,8.53
2019-01-29T11:08:08.115Z,5.80
2019-01-29T11:10:37.192Z,8.93
2019-01-29T11:13:07.395Z,6.33
2019-01-29T11:15:38.893Z,9.20
2019-01-29T11:18:12.128Z,10.97
2019-01-29T11:20:41.336Z,8.80
2019-01-29T11:23:10.823Z,7.73
2019-01-29T11:25:40.679Z,8.37
2019-01-29T11:28:10.146Z,7.37
2019-01-29T11:30:39.295Z,9.63
2019-01-29T11:33:09.200Z,8.80
2019-01-29T11:35:40.558Z,9.53
2019-01-29T11:38:10.060Z,7.93
2019-01-29T11:40:40.248Z,5.13
2019-01-29T11:43:09.359Z,9.27
2019-01-29T11:45:45.879Z,8.40
2019-01-29T11:48:15.199Z,8.70
2019-01-29T11:50:44.299Z,8.97
2019-01-29T11:53:13.667Z,7.30
2019-01-29T11:55:43.043Z,7.47
2019-01-29T11:58:12.149Z,9.17
2019-01-29T12:00:43.223Z,14.13
2019-01-29T12:03:12.574Z,10.43
2019-01-29T12:05:41.955Z,7.77
2019-01-29T12:08:11.381Z,11.20
2019-01-29T12:10:40.793Z,8.93
2019-01-29T12:13:10.138Z,8.47
2019-01-29T12:15:39.504Z,6.50
2019-01-29T12:18:08.643Z,6.90
2019-01-29T12:20:37.981Z,8.07
2019-01-29T12:23:07.134Z,7.23
2019-01-29T12:25:36.479Z,8.83
2019-01-29T12:28:05.962Z,8.83
2019-01-29T12:30:36.002Z,7.43
2019-01-29T12:33:07.251Z,11.60
2019-01-29T12:35:36.353Z,6.77
2019-01-29T12:38:05.542Z,7.33
2019-01-29T12:40:34.649Z,6.87
2019-01-29T12:43:04.318Z,6.90
2019-01-29T12:45:33.388Z,7.73
2019-01-29T12:48:02.755Z,8.50
2019-01-29T12:50:32.671Z,10.73
2019-01-29T12:53:06.324Z,6.67
2019-01-29T12:55:35.407Z,7.73
2019-01-29T12:58:05.220Z,5.47
2019-01-29T13:00:36.319Z,8.17
2019-01-29T13:03:05.757Z,7.40
2019-01-29T13:05:35.093Z,12.30
2019-01-29T13:08:05.295Z,12.80
2019-01-29T13:10:34.369Z,8.77
2019-01-29T13:13:03.489Z,8.83
2019-01-29T13:15:33.907Z,7.77
2019-01-29T13:18:03.474Z,7.03
2019-01-29T13:20:32.767Z,6.23
2019-01-29T13:23:01.904Z,7.80
2019-01-29T13:25:31.023Z,7.53
2019-01-29T13:28:00.103Z,7.13
2019-01-29T13:30:37.456Z,7.17
2019-01-29T13:33:09.361Z,9.00
2019-01-29T13:35:40.108Z,10.47
2019-01-29T13:38:10.720Z,6.87
2019-01-29T13:40:39.834Z,11.30
2019-01-29T13:43:09.006Z,10.30
2019-01-29T13:45:38.457Z,6.03
2019-01-29T13:48:07.571Z,10.50
2019-01-29T13:50:42.687Z,5.77
2019-01-29T13:53:11.783Z,7.23
2019-01-29T13:55:40.887Z,5.97
2019-01-29T13:58:10.474Z,7.87
2019-01-29T14:00:41.117Z,6.27
2019-01-29T14:03:12.926Z,6.30
2019-01-29T14:05:42.394Z,7.67
2019-01-29T14:08:12.083Z,8.63
2019-01-29T14:10:41.438Z,9.70
2019-01-29T14:13:10.658Z,11.07
2019-01-29T14:15:44.127Z,9.93
2019-01-29T14:18:14.334Z,6.27
2019-01-29T14:20:43.655Z,8.93
2019-01-29T14:23:13.696Z,6.43
2019-01-29T14:25:42.838Z,9.03
2019-01-29T14:28:12.469Z,10.23
2019-01-29T14:30:41.573Z,10.07
2019-01-29T14:33:10.647Z,9.47
2019-01-29T14:35:39.988Z,7.90
2019-01-29T14:38:20.846Z,8.53
2019-01-29T14:40:49.954Z,6.90
2019-01-29T14:43:30.139Z,6.87
2019-01-29T14:45:59.540Z,5.27
2019-01-29T14:48:28.636Z,6.63
2019-01-29T14:50:57.759Z,10.43
2019-01-29T14:53:26.857Z,5.97
2019-01-29T14:55:55.942Z,5.87
2019-01-29T14:58:25.320Z,7.20
2019-01-29T15:00:54.818Z,8.43
2019-01-29T15:03:23.925Z,6.23
2019-01-29T15:05:53.353Z,8.10
2019-01-29T15:08:22.440Z,6.37
2019-01-29T15:10:51.806Z,7.73
2019-01-29T15:13:20.909Z,4.63
2019-01-29T15:15:54.602Z,5.57
2019-01-29T15:18:25.377Z,7.23
2019-01-29T15:20:54.507Z,7.40
2019-01-29T15:23:23.638Z,11.27
2019-01-29T15:25:52.990Z,9.07
2019-01-29T15:28:22.187Z,8.23
2019-01-29T15:31:10.566Z,5.67
2019-01-29T15:33:59.034Z,8.47
2019-01-29T15:36:28.437Z,7.23
2019-01-29T15:38:57.541Z,10.13
2019-01-29T15:41:26.659Z,10.33
2019-01-29T15:43:55.869Z,8.00
2019-01-29T15:46:24.963Z,8.13
2019-01-29T15:48:54.418Z,7.50
2019-01-29T15:51:23.523Z,7.20
2019-01-29T15:53:52.625Z,7.37
2019-01-29T15:56:21.984Z,6.30
2019-01-29T15:58:51.091Z,6.37
2019-01-29T16:01:20.427Z,10.87
2019-01-29T16:03:49.799Z,8.03
2019-01-29T16:06:38.485Z,7.20
2019-01-29T16:09:08.781Z,11.30
2019-01-29T16:11:39.442Z,9.97
2019-01-29T16:14:08.584Z,9.30
2019-01-29T16:16:37.703Z,11.97
2019-01-29T16:19:06.857Z,11.97
2019-01-29T16:21:36.232Z,13.97
2019-01-29T16:24:05.735Z,10.70
2019-01-29T16:26:35.225Z,13.33
2019-01-29T16:29:04.404Z,8.97
2019-01-29T16:31:33.817Z,7.60
2019-01-29T16:34:02.915Z,7.70
2019-01-29T16:36:31.993Z,7.30
2019-01-29T16:39:01.369Z,9.87
2019-01-29T16:41:30.774Z,10.00
2019-01-29T16:43:59.881Z,11.20
2019-01-29T16:46:29.048Z,7.80
2019-01-29T16:48:58.140Z,10.40
2019-01-29T16:51:27.477Z,8.50
2019-01-29T16:53:56.548Z,8.93
2019-01-29T16:56:25.720Z,12.20
2019-01-29T16:58:54.821Z,7.13
2019-01-29T17:01:24.159Z,8.60
2019-01-29T17:03:53.498Z,6.13
2019-01-29T17:06:22.640Z,10.97
2019-01-29T17:08:51.749Z,8.27
2019-01-29T17:11:20.840Z,7.97
2019-01-29T17:13:49.920Z,8.37
2019-01-29T17:16:19.382Z,8.47
2019-01-29T17:18:48.485Z,8.53
2019-01-29T17:21:17.873Z,7.60
2019-01-29T17:23:46.972Z,6.60
2019-01-29T17:26:16.105Z,6.27
2019-01-29T17:28:45.290Z,8.47
2019-01-29T17:31:15.237Z,9.63
2019-01-29T17:33:44.570Z,7.30
2019-01-29T17:36:13.763Z,10.17
2019-01-29T17:38:44.684Z,8.57
2019-01-29T17:41:13.941Z,10.53
2019-01-29T17:43:43.323Z,10.20
2019-01-29T17:46:12.497Z,8.47
2019-01-29T17:48:41.599Z,11.20
2019-01-29T17:51:30.356Z,10.10
2019-01-29T17:53:59.451Z,10.27
2019-01-29T17:56:28.549Z,10.53
2019-01-29T17:58:57.628Z,8.03
2019-01-29T18:01:27.082Z,9.30
2019-01-29T18:03:56.437Z,10.57
2019-01-29T18:06:25.886Z,14.30
2019-01-29T18:08:54.985Z,9.20
2019-01-29T18:11:24.134Z,14.63
2019-01-29T18:13:53.337Z,10.67
2019-01-29T18:16:22.493Z,9.77
2019-01-29T18:18:51.570Z,12.10
2019-01-29T18:21:20.709Z,5.27
2019-01-29T18:23:49.780Z,10.60
2019-01-29T18:26:18.925Z,9.03
2019-01-29T18:28:48.284Z,9.23
2019-01-29T18:31:17.642Z,8.33
2019-01-29T18:33:46.750Z,9.23
2019-01-29T18:36:16.125Z,8.73
2019-01-29T18:38:45.232Z,9.60
2019-01-29T18:41:14.614Z,6.73
2019-01-29T18:43:43.875Z,11.12
2019-01-29T18:46:12.972Z,8.03
2019-01-29T18:48:42.341Z,9.53
2019-01-29T18:51:11.449Z,8.60
2019-01-29T18:53:40.790Z,10.40
2019-01-29T18:56:09.997Z,8.18
2019-01-29T18:58:39.105Z,8.40
2019-01-29T19:01:08.450Z,10.98
2019-01-29T19:03:37.793Z,7.10
2019-01-29T19:06:07.233Z,10.43
2019-01-29T19:08:36.354Z,10.65
2019-01-29T19:11:07.784Z,7.78
2019-01-29T19:13:36.538Z,10.90
2019-01-29T19:16:05.655Z,7.72
2019-01-29T19:18:35.004Z,8.55
2019-01-29T19:21:04.076Z,9.43
2019-01-29T19:23:33.776Z,9.80
2019-01-29T19:26:02.887Z,7.62
2019-01-29T19:28:31.972Z,8.13
2019-01-29T19:31:01.317Z,5.95
2019-01-29T19:33:31.075Z,7.83
2019-01-29T19:36:00.414Z,10.72
2019-01-29T19:38:29.807Z,11.53
2019-01-29T19:40:58.896Z,10.48
2019-01-29T19:43:27.992Z,10.72
2019-01-29T19:45:57.402Z,7.03
2019-01-29T19:48:26.545Z,8.03
2019-01-29T19:50:55.654Z,10.90
2019-01-29T19:53:25.082Z,8.53
2019-01-29T19:55:54.227Z,8.23
2019-01-29T19:58:31.959Z,9.38
2019-01-29T20:00:54.424Z,8.23
2019-01-29T20:03:23.533Z,10.45
2019-01-29T20:05:52.629Z,12.13
2019-01-29T20:08:23.339Z,11.03
2019-01-29T20:10:52.620Z,11.45
2019-01-29T20:13:21.762Z,9.33
2019-01-29T20:15:50.848Z,10.05
2019-01-29T20:18:19.974Z,10.63
2019-01-29T20:20:49.074Z,9.60
2019-01-29T20:23:18.198Z,12.88
2019-01-29T20:25:47.562Z,8.98
2019-01-29T20:28:16.934Z,11.50
2019-01-29T20:30:46.312Z,9.80
2019-01-29T20:33:15.781Z,10.40
2019-01-29T20:35:45.176Z,8.60
2019-01-29T20:38:14.537Z,9.93
2019-01-29T20:40:43.971Z,13.55
2019-01-29T20:43:13.096Z,14.60
2019-01-29T20:45:42.241Z,9.95
2019-01-29T20:48:11.352Z,11.20
2019-01-29T20:50:40.699Z,11.38
2019-01-29T20:53:09.815Z,12.23
2019-01-29T20:55:39.182Z,10.23
2019-01-29T20:58:08.291Z,11.45
2019-01-29T21:00:41.367Z,10.23
2019-01-29T21:03:10.825Z,13.60
2019-01-29T21:05:39.905Z,12.95
2019-01-29T21:08:09.314Z,12.60
2019-01-29T21:10:38.688Z,9.70
2019-01-29T21:13:07.775Z,12.00
2019-01-29T21:15:38.399Z,13.38
2019-01-29T21:18:08.032Z,12.37
2019-01-29T21:20:37.399Z,13.03
2019-01-29T21:23:06.510Z,13.18
2019-01-29T21:25:35.876Z,12.70
2019-01-29T21:28:05.332Z,14.10
2019-01-29T21:30:36.785Z,13.85
2019-01-29T21:33:05.881Z,13.50
2019-01-29T21:35:35.022Z,12.25
2019-01-29T21:38:04.527Z,16.07
2019-01-29T21:40:33.911Z,17.65
2019-01-29T21:43:03.025Z,15.53
2019-01-29T21:45:32.135Z,13.10
2019-01-29T21:48:01.522Z,14.80
2019-01-29T21:50:34.790Z,13.83
2019-01-29T21:53:04.531Z,19.48
2019-01-29T21:55:33.886Z,17.75
2019-01-29T21:58:03.025Z,15.30
2019-01-29T22:00:41.782Z,14.78
2019-01-29T22:03:11.125Z,17.52
2019-01-29T22:05:40.316Z,17.42
2019-01-29T22:08:09.548Z,14.98
2019-01-29T22:10:38.974Z,14.75
2019-01-29T22:13:09.728Z,16.82
2019-01-29T22:15:38.812Z,15.38
2019-01-29T22:18:07.981Z,16.35
2019-01-29T22:20:37.324Z,17.90
2019-01-29T22:23:06.707Z,15.35
2019-01-29T22:25:35.987Z,19.42
2019-01-29T22:28:06.286Z,18.15
2019-01-29T22:30:37.408Z,14.90
2019-01-29T22:33:06.957Z,15.48
2019-01-29T22:35:36.141Z,15.93
2019-01-29T22:38:05.450Z,17.23
2019-01-29T22:40:34.953Z,19.10
2019-01-29T22:43:04.572Z,13.08
2019-01-29T22:45:33.698Z,15.72
2019-01-29T22:48:04.500Z,18.70
2019-01-29T22:50:36.320Z,17.90
2019-01-29T22:53:05.591Z,14.65
2019-01-29T22:55:34.937Z,16.77
2019-01-29T22:58:05.215Z,17.17
2019-01-29T23:00:51.090Z,16.82
2019-01-29T23:03:25.331Z,16.95
2019-01-29T23:06:06.473Z,15.98
2019-01-29T23:08:36.022Z,13.35
2019-01-29T23:11:05.569Z,19.55
2019-01-29T23:13:34.770Z,14.38
2019-01-29T23:16:04.558Z,13.95
2019-01-29T23:18:33.692Z,12.95
2019-01-29T23:21:03.063Z,14.95
2019-01-29T23:23:32.197Z,13.20
2019-01-29T23:26:01.297Z,13.48
2019-01-29T23:28:30.740Z,12.58
2019-01-29T23:31:00.105Z,15.55
2019-01-29T23:33:29.302Z,14.50
2019-01-29T23:35:58.651Z,12.68
2019-01-29T23:38:28.067Z,13.75
2019-01-29T23:40:57.221Z,14.43
2019-01-29T23:43:26.348Z,15.58
2019-01-29T23:45:55.548Z,14.23
2019-01-29T23:48:24.676Z,17.62
2019-01-29T23:50:53.868Z,16.80
2019-01-29T23:53:22.969Z,16.65
2019-01-29T23:55:52.061Z,14.70
2019-01-29T23:58:21.855Z,17.15
